sensor_id;sensor_type;location;lat;lon;timestamp;temperature;humidity
21047;DHT22;10682;50.874;3.656;2022-07-29T00:01:42;18.00;99.90
21047;DHT22;10682;50.874;3.656;2022-07-29T00:04:10;17.90;99.90
21047;DHT22;10682;50.874;3.656;2022-07-29T00:06:37;17.80;99.90
21047;DHT22;10682;50.874;3.656;2022-07-29T00:09:04;17.80;99.90
21047;DHT22;10682;50.874;3.656;2022-07-29T00:11:32;17.70;99.90
21047;DHT22;10682;50.874;3.656;2022-07-29T00:13:59;17.60;99.90
21047;DHT22;10682;50.874;3.656;2022-07-29T00:16:26;17.60;99.90
21047;DHT22;10682;50.874;3.656;2022-07-29T00:18:53;17.50;99.90
21047;DHT22;10682;50.874;3.656;2022-07-29T00:21:26;17.40;99.90
21047;DHT22;10682;50.874;3.656;2022-07-29T00:24:00;17.30;99.90
21047;DHT22;10682;50.874;3.656;2022-07-29T00:26:27;17.20;99.90
21047;DHT22;10682;50.874;3.656;2022-07-29T00:28:59;17.10;99.90
21047;DHT22;10682;50.874;3.656;2022-07-29T00:31:47;17.00;99.90
21047;DHT22;10682;50.874;3.656;2022-07-29T00:34:14;16.90;99.90
21047;DHT22;10682;50.874;3.656;2022-07-29T00:37:15;16.80;99.90
21047;DHT22;10682;50.874;3.656;2022-07-29T00:39:42;16.70;99.90
21047;DHT22;10682;50.874;3.656;2022-07-29T00:42:09;16.60;99.90
21047;DHT22;10682;50.874;3.656;2022-07-29T00:44:38;16.60;99.90
21047;DHT22;10682;50.874;3.656;2022-07-29T00:47:06;16.50;99.90
21047;DHT22;10682;50.874;3.656;2022-07-29T00:49:34;16.50;99.90
21047;DHT22;10682;50.874;3.656;2022-07-29T00:52:03;16.40;99.90
21047;DHT22;10682;50.874;3.656;2022-07-29T00:54:32;16.30;99.90
21047;DHT22;10682;50.874;3.656;2022-07-29T00:57:00;16.30;99.90
21047;DHT22;10682;50.874;3.656;2022-07-29T00:59:28;16.20;99.90
21047;DHT22;10682;50.874;3.656;2022-07-29T01:02:04;16.20;99.90
21047;DHT22;10682;50.874;3.656;2022-07-29T01:04:32;16.20;99.90
21047;DHT22;10682;50.874;3.656;2022-07-29T01:07:01;16.20;99.90
21047;DHT22;10682;50.874;3.656;2022-07-29T01:09:31;16.10;99.90
21047;DHT22;10682;50.874;3.656;2022-07-29T01:12:17;16.10;99.90
21047;DHT22;10682;50.874;3.656;2022-07-29T01:14:47;16.10;99.90
21047;DHT22;10682;50.874;3.656;2022-07-29T01:17:36;16.00;99.90
21047;DHT22;10682;50.874;3.656;2022-07-29T01:29:49;15.60;99.90
21047;DHT22;10682;50.874;3.656;2022-07-29T01:32:29;15.60;99.90
21047;DHT22;10682;50.874;3.656;2022-07-29T01:38:01;15.40;99.90
21047;DHT22;10682;50.874;3.656;2022-07-29T01:40:51;15.30;99.90
21047;DHT22;10682;50.874;3.656;2022-07-29T01:43:26;15.30;99.90
21047;DHT22;10682;50.874;3.656;2022-07-29T01:46:01;15.20;99.90
21047;DHT22;10682;50.874;3.656;2022-07-29T01:51:18;15.20;99.90
21047;DHT22;10682;50.874;3.656;2022-07-29T01:53:55;15.10;99.90
21047;DHT22;10682;50.874;3.656;2022-07-29T01:56:27;15.10;99.90
21047;DHT22;10682;50.874;3.656;2022-07-29T01:58:57;15.10;99.90
21047;DHT22;10682;50.874;3.656;2022-07-29T02:01:26;15.10;99.90
21047;DHT22;10682;50.874;3.656;2022-07-29T02:03:54;15.00;99.90
21047;DHT22;10682;50.874;3.656;2022-07-29T02:06:23;14.90;99.90
21047;DHT22;10682;50.874;3.656;2022-07-29T02:08:52;14.90;99.90
21047;DHT22;10682;50.874;3.656;2022-07-29T02:11:20;14.70;99.90
21047;DHT22;10682;50.874;3.656;2022-07-29T02:13:48;14.60;99.90
21047;DHT22;10682;50.874;3.656;2022-07-29T02:16:16;14.50;99.90
21047;DHT22;10682;50.874;3.656;2022-07-29T02:18:48;14.40;99.90
21047;DHT22;10682;50.874;3.656;2022-07-29T02:21:26;14.40;99.90
21047;DHT22;10682;50.874;3.656;2022-07-29T02:23:56;14.30;99.90
21047;DHT22;10682;50.874;3.656;2022-07-29T02:26:27;14.30;99.90
21047;DHT22;10682;50.874;3.656;2022-07-29T02:28:57;14.20;99.90
21047;DHT22;10682;50.874;3.656;2022-07-29T02:31:30;14.20;99.90
21047;DHT22;10682;50.874;3.656;2022-07-29T02:34:02;14.20;99.90
21047;DHT22;10682;50.874;3.656;2022-07-29T02:36:31;14.20;99.90
21047;DHT22;10682;50.874;3.656;2022-07-29T02:39:03;14.10;99.90
21047;DHT22;10682;50.874;3.656;2022-07-29T02:41:35;14.10;99.90
21047;DHT22;10682;50.874;3.656;2022-07-29T02:44:14;14.10;99.90
21047;DHT22;10682;50.874;3.656;2022-07-29T02:47:20;14.00;99.90
21047;DHT22;10682;50.874;3.656;2022-07-29T02:50:21;13.90;99.90
21047;DHT22;10682;50.874;3.656;2022-07-29T02:56:11;13.80;99.90
21047;DHT22;10682;50.874;3.656;2022-07-29T02:58:42;13.80;99.90
21047;DHT22;10682;50.874;3.656;2022-07-29T03:01:21;13.70;99.90
21047;DHT22;10682;50.874;3.656;2022-07-29T03:03:52;13.70;99.90
21047;DHT22;10682;50.874;3.656;2022-07-29T03:06:22;13.60;99.90
21047;DHT22;10682;50.874;3.656;2022-07-29T03:09:06;13.60;99.90
21047;DHT22;10682;50.874;3.656;2022-07-29T03:11:39;13.60;99.90
21047;DHT22;10682;50.874;3.656;2022-07-29T03:14:17;13.60;99.90
21047;DHT22;10682;50.874;3.656;2022-07-29T03:16:46;13.50;99.90
21047;DHT22;10682;50.874;3.656;2022-07-29T03:19:14;13.40;99.90
21047;DHT22;10682;50.874;3.656;2022-07-29T03:21:42;13.30;99.90
21047;DHT22;10682;50.874;3.656;2022-07-29T03:24:09;13.30;99.90
21047;DHT22;10682;50.874;3.656;2022-07-29T03:26:36;13.30;99.90
21047;DHT22;10682;50.874;3.656;2022-07-29T03:29:04;13.20;99.90
21047;DHT22;10682;50.874;3.656;2022-07-29T03:31:31;13.20;99.90
21047;DHT22;10682;50.874;3.656;2022-07-29T03:33:59;13.10;99.90
21047;DHT22;10682;50.874;3.656;2022-07-29T03:36:26;13.10;99.90
21047;DHT22;10682;50.874;3.656;2022-07-29T03:38:53;13.00;99.90
21047;DHT22;10682;50.874;3.656;2022-07-29T03:41:24;13.00;99.90
21047;DHT22;10682;50.874;3.656;2022-07-29T03:43:51;13.00;99.90
21047;DHT22;10682;50.874;3.656;2022-07-29T03:46:20;13.00;99.90
21047;DHT22;10682;50.874;3.656;2022-07-29T03:48:53;13.00;99.90
21047;DHT22;10682;50.874;3.656;2022-07-29T03:51:23;13.00;99.90
21047;DHT22;10682;50.874;3.656;2022-07-29T03:54:03;12.90;99.90
21047;DHT22;10682;50.874;3.656;2022-07-29T03:56:39;12.80;99.90
21047;DHT22;10682;50.874;3.656;2022-07-29T03:59:08;12.80;99.90
21047;DHT22;10682;50.874;3.656;2022-07-29T04:01:37;12.70;99.90
21047;DHT22;10682;50.874;3.656;2022-07-29T04:04:05;12.60;99.90
21047;DHT22;10682;50.874;3.656;2022-07-29T04:06:42;12.60;99.90
21047;DHT22;10682;50.874;3.656;2022-07-29T04:09:11;12.60;99.90
21047;DHT22;10682;50.874;3.656;2022-07-29T04:11:39;12.60;99.90
21047;DHT22;10682;50.874;3.656;2022-07-29T04:14:26;12.60;99.90
21047;DHT22;10682;50.874;3.656;2022-07-29T04:16:53;12.60;99.90
21047;DHT22;10682;50.874;3.656;2022-07-29T04:19:20;12.60;99.90
21047;DHT22;10682;50.874;3.656;2022-07-29T04:21:47;12.60;99.90
21047;DHT22;10682;50.874;3.656;2022-07-29T04:24:14;12.60;99.90
21047;DHT22;10682;50.874;3.656;2022-07-29T04:26:42;12.60;99.90
21047;DHT22;10682;50.874;3.656;2022-07-29T04:29:09;12.60;99.90
21047;DHT22;10682;50.874;3.656;2022-07-29T04:31:36;12.60;99.90
21047;DHT22;10682;50.874;3.656;2022-07-29T04:34:03;12.70;99.90
21047;DHT22;10682;50.874;3.656;2022-07-29T04:36:30;12.70;99.90
21047;DHT22;10682;50.874;3.656;2022-07-29T04:38:57;12.70;99.90
21047;DHT22;10682;50.874;3.656;2022-07-29T04:41:24;12.80;99.90
21047;DHT22;10682;50.874;3.656;2022-07-29T04:43:59;12.80;99.90
21047;DHT22;10682;50.874;3.656;2022-07-29T04:46:33;12.80;99.90
21047;DHT22;10682;50.874;3.656;2022-07-29T04:49:01;12.90;99.90
21047;DHT22;10682;50.874;3.656;2022-07-29T04:51:29;13.00;99.90
21047;DHT22;10682;50.874;3.656;2022-07-29T04:53:57;13.00;99.90
21047;DHT22;10682;50.874;3.656;2022-07-29T04:56:24;13.00;99.90
21047;DHT22;10682;50.874;3.656;2022-07-29T04:58:50;13.10;99.90
21047;DHT22;10682;50.874;3.656;2022-07-29T05:01:18;13.10;99.90
21047;DHT22;10682;50.874;3.656;2022-07-29T05:03:45;13.20;99.90
21047;DHT22;10682;50.874;3.656;2022-07-29T05:06:12;13.30;99.90
21047;DHT22;10682;50.874;3.656;2022-07-29T05:08:39;13.40;99.90
21047;DHT22;10682;50.874;3.656;2022-07-29T05:11:07;13.30;99.90
21047;DHT22;10682;50.874;3.656;2022-07-29T05:13:39;13.40;99.90
21047;DHT22;10682;50.874;3.656;2022-07-29T05:16:11;13.50;99.90
21047;DHT22;10682;50.874;3.656;2022-07-29T05:18:39;13.60;99.90
21047;DHT22;10682;50.874;3.656;2022-07-29T05:21:07;13.70;99.90
21047;DHT22;10682;50.874;3.656;2022-07-29T05:23:34;13.90;99.90
21047;DHT22;10682;50.874;3.656;2022-07-29T05:26:01;13.90;99.90
21047;DHT22;10682;50.874;3.656;2022-07-29T05:28:28;13.90;99.90
21047;DHT22;10682;50.874;3.656;2022-07-29T05:30:55;13.90;99.90
21047;DHT22;10682;50.874;3.656;2022-07-29T05:33:23;13.90;99.90
21047;DHT22;10682;50.874;3.656;2022-07-29T05:36:05;13.90;99.90
21047;DHT22;10682;50.874;3.656;2022-07-29T05:38:35;14.00;99.90
21047;DHT22;10682;50.874;3.656;2022-07-29T05:41:03;14.10;99.90
21047;DHT22;10682;50.874;3.656;2022-07-29T05:43:32;14.30;99.90
21047;DHT22;10682;50.874;3.656;2022-07-29T05:45:59;14.40;99.90
21047;DHT22;10682;50.874;3.656;2022-07-29T05:48:27;14.50;99.90
21047;DHT22;10682;50.874;3.656;2022-07-29T05:50:54;14.70;99.90
21047;DHT22;10682;50.874;3.656;2022-07-29T05:53:21;14.80;99.90
21047;DHT22;10682;50.874;3.656;2022-07-29T05:55:49;15.00;99.90
21047;DHT22;10682;50.874;3.656;2022-07-29T05:58:17;15.10;99.90
21047;DHT22;10682;50.874;3.656;2022-07-29T06:00:44;15.30;99.90
21047;DHT22;10682;50.874;3.656;2022-07-29T06:03:11;15.40;99.90
21047;DHT22;10682;50.874;3.656;2022-07-29T06:05:38;15.50;99.90
21047;DHT22;10682;50.874;3.656;2022-07-29T06:08:06;15.70;99.90
21047;DHT22;10682;50.874;3.656;2022-07-29T06:10:37;15.80;99.90
21047;DHT22;10682;50.874;3.656;2022-07-29T06:13:04;15.90;99.90
21047;DHT22;10682;50.874;3.656;2022-07-29T06:15:32;16.00;99.90
21047;DHT22;10682;50.874;3.656;2022-07-29T06:18:00;16.10;99.90
21047;DHT22;10682;50.874;3.656;2022-07-29T06:20:29;16.30;99.90
21047;DHT22;10682;50.874;3.656;2022-07-29T06:22:58;16.40;99.90
21047;DHT22;10682;50.874;3.656;2022-07-29T06:25:26;16.50;99.90
21047;DHT22;10682;50.874;3.656;2022-07-29T06:27:58;16.70;99.90
21047;DHT22;10682;50.874;3.656;2022-07-29T06:30:27;16.80;99.90
21047;DHT22;10682;50.874;3.656;2022-07-29T06:32:55;17.00;99.90
21047;DHT22;10682;50.874;3.656;2022-07-29T06:35:22;17.20;99.90
21047;DHT22;10682;50.874;3.656;2022-07-29T06:38:08;17.40;99.90
21047;DHT22;10682;50.874;3.656;2022-07-29T06:40:57;17.60;99.90
21047;DHT22;10682;50.874;3.656;2022-07-29T06:43:40;17.90;99.90
21047;DHT22;10682;50.874;3.656;2022-07-29T06:46:21;18.10;99.90
21047;DHT22;10682;50.874;3.656;2022-07-29T06:48:49;18.20;99.90
21047;DHT22;10682;50.874;3.656;2022-07-29T06:51:16;18.30;99.90
21047;DHT22;10682;50.874;3.656;2022-07-29T06:53:52;18.50;99.90
21047;DHT22;10682;50.874;3.656;2022-07-29T06:56:27;18.80;99.90
21047;DHT22;10682;50.874;3.656;2022-07-29T06:58:55;19.00;99.90
21047;DHT22;10682;50.874;3.656;2022-07-29T07:01:22;19.10;99.90
21047;DHT22;10682;50.874;3.656;2022-07-29T07:03:49;19.30;99.90
21047;DHT22;10682;50.874;3.656;2022-07-29T07:06:17;19.70;99.90
21047;DHT22;10682;50.874;3.656;2022-07-29T07:08:44;20.00;99.90
21047;DHT22;10682;50.874;3.656;2022-07-29T07:11:11;20.30;99.90
21047;DHT22;10682;50.874;3.656;2022-07-29T07:13:38;20.40;99.90
21047;DHT22;10682;50.874;3.656;2022-07-29T07:16:05;20.90;99.90
21047;DHT22;10682;50.874;3.656;2022-07-29T07:18:32;21.50;99.90
21047;DHT22;10682;50.874;3.656;2022-07-29T07:20:59;21.70;99.90
21047;DHT22;10682;50.874;3.656;2022-07-29T07:23:26;21.70;99.90
21047;DHT22;10682;50.874;3.656;2022-07-29T07:25:53;21.30;99.90
21047;DHT22;10682;50.874;3.656;2022-07-29T07:28:25;21.20;99.90
21047;DHT22;10682;50.874;3.656;2022-07-29T07:30:52;21.20;99.90
21047;DHT22;10682;50.874;3.656;2022-07-29T07:33:19;21.30;99.90
21047;DHT22;10682;50.874;3.656;2022-07-29T07:35:48;21.20;99.90
21047;DHT22;10682;50.874;3.656;2022-07-29T07:38:15;21.20;99.90
21047;DHT22;10682;50.874;3.656;2022-07-29T07:40:42;21.20;99.90
21047;DHT22;10682;50.874;3.656;2022-07-29T07:43:10;21.20;99.90
21047;DHT22;10682;50.874;3.656;2022-07-29T07:45:37;21.20;99.90
21047;DHT22;10682;50.874;3.656;2022-07-29T07:48:06;21.30;99.90
21047;DHT22;10682;50.874;3.656;2022-07-29T07:50:36;21.50;99.90
21047;DHT22;10682;50.874;3.656;2022-07-29T07:53:04;21.80;99.90
21047;DHT22;10682;50.874;3.656;2022-07-29T07:55:31;22.10;99.90
21047;DHT22;10682;50.874;3.656;2022-07-29T07:58:18;22.30;99.90
21047;DHT22;10682;50.874;3.656;2022-07-29T08:00:45;22.50;99.90
21047;DHT22;10682;50.874;3.656;2022-07-29T08:03:12;22.50;99.90
21047;DHT22;10682;50.874;3.656;2022-07-29T08:05:43;22.60;99.90
21047;DHT22;10682;50.874;3.656;2022-07-29T08:08:10;22.70;99.90
21047;DHT22;10682;50.874;3.656;2022-07-29T08:10:37;22.60;99.90
21047;DHT22;10682;50.874;3.656;2022-07-29T08:13:21;22.60;99.90
21047;DHT22;10682;50.874;3.656;2022-07-29T08:15:49;23.00;99.90
21047;DHT22;10682;50.874;3.656;2022-07-29T08:18:29;23.80;99.90
21047;DHT22;10682;50.874;3.656;2022-07-29T08:20:57;24.60;99.90
21047;DHT22;10682;50.874;3.656;2022-07-29T08:23:25;25.20;99.90
21047;DHT22;10682;50.874;3.656;2022-07-29T08:26:12;25.80;99.90
21047;DHT22;10682;50.874;3.656;2022-07-29T08:28:41;26.30;99.90
21047;DHT22;10682;50.874;3.656;2022-07-29T08:31:13;26.60;99.90
21047;DHT22;10682;50.874;3.656;2022-07-29T08:33:41;26.30;99.90
21047;DHT22;10682;50.874;3.656;2022-07-29T08:36:08;26.20;99.90
21047;DHT22;10682;50.874;3.656;2022-07-29T08:38:35;26.20;99.90
21047;DHT22;10682;50.874;3.656;2022-07-29T08:41:05;25.90;99.90
21047;DHT22;10682;50.874;3.656;2022-07-29T08:43:32;26.00;99.90
21047;DHT22;10682;50.874;3.656;2022-07-29T08:46:01;26.30;99.90
21047;DHT22;10682;50.874;3.656;2022-07-29T08:48:29;26.50;99.90
21047;DHT22;10682;50.874;3.656;2022-07-29T08:50:57;26.70;99.90
21047;DHT22;10682;50.874;3.656;2022-07-29T08:53:26;26.80;99.90
21047;DHT22;10682;50.874;3.656;2022-07-29T08:55:54;27.00;99.90
21047;DHT22;10682;50.874;3.656;2022-07-29T08:58:23;27.00;99.90
21047;DHT22;10682;50.874;3.656;2022-07-29T09:00:53;27.10;99.90
21047;DHT22;10682;50.874;3.656;2022-07-29T09:03:27;26.70;99.90
21047;DHT22;10682;50.874;3.656;2022-07-29T09:05:59;26.30;99.90
21047;DHT22;10682;50.874;3.656;2022-07-29T09:08:26;26.10;99.90
21047;DHT22;10682;50.874;3.656;2022-07-29T09:10:54;26.20;99.90
21047;DHT22;10682;50.874;3.656;2022-07-29T09:13:25;26.30;99.90
21047;DHT22;10682;50.874;3.656;2022-07-29T09:15:52;26.40;99.90
21047;DHT22;10682;50.874;3.656;2022-07-29T09:18:39;26.30;99.90
21047;DHT22;10682;50.874;3.656;2022-07-29T09:21:10;26.60;99.90
21047;DHT22;10682;50.874;3.656;2022-07-29T09:24:11;26.80;99.90
21047;DHT22;10682;50.874;3.656;2022-07-29T09:26:40;26.90;99.90
21047;DHT22;10682;50.874;3.656;2022-07-29T09:29:14;27.10;99.90
21047;DHT22;10682;50.874;3.656;2022-07-29T09:31:44;27.20;99.90
21047;DHT22;10682;50.874;3.656;2022-07-29T09:34:20;27.50;99.90
21047;DHT22;10682;50.874;3.656;2022-07-29T09:36:51;27.80;99.90
21047;DHT22;10682;50.874;3.656;2022-07-29T09:39:46;27.80;99.90
21047;DHT22;10682;50.874;3.656;2022-07-29T09:42:13;27.80;99.90
21047;DHT22;10682;50.874;3.656;2022-07-29T09:44:54;28.00;99.90
21047;DHT22;10682;50.874;3.656;2022-07-29T09:47:21;28.30;99.90
21047;DHT22;10682;50.874;3.656;2022-07-29T09:49:58;28.60;99.90
21047;DHT22;10682;50.874;3.656;2022-07-29T09:52:27;28.70;99.90
21047;DHT22;10682;50.874;3.656;2022-07-29T09:55:06;28.90;99.90
21047;DHT22;10682;50.874;3.656;2022-07-29T09:57:34;29.00;99.90
21047;DHT22;10682;50.874;3.656;2022-07-29T10:02:34;28.70;99.90
21047;DHT22;10682;50.874;3.656;2022-07-29T10:05:23;28.80;99.90
21047;DHT22;10682;50.874;3.656;2022-07-29T10:08:02;28.90;99.90
21047;DHT22;10682;50.874;3.656;2022-07-29T10:10:32;29.20;99.90
21047;DHT22;10682;50.874;3.656;2022-07-29T10:13:06;29.10;99.90
21047;DHT22;10682;50.874;3.656;2022-07-29T10:15:43;29.10;99.90
21047;DHT22;10682;50.874;3.656;2022-07-29T10:18:12;29.30;99.90
21047;DHT22;10682;50.874;3.656;2022-07-29T10:20:40;29.10;99.90
21047;DHT22;10682;50.874;3.656;2022-07-29T10:23:08;29.40;99.90
21047;DHT22;10682;50.874;3.656;2022-07-29T10:25:37;29.40;99.90
21047;DHT22;10682;50.874;3.656;2022-07-29T10:28:05;29.00;99.90
21047;DHT22;10682;50.874;3.656;2022-07-29T10:30:33;29.00;99.90
21047;DHT22;10682;50.874;3.656;2022-07-29T10:36:21;28.60;99.90
21047;DHT22;10682;50.874;3.656;2022-07-29T10:42:32;27.70;99.90
21047;DHT22;10682;50.874;3.656;2022-07-29T10:45:10;27.40;99.90
21047;DHT22;10682;50.874;3.656;2022-07-29T10:47:37;27.30;99.90
21047;DHT22;10682;50.874;3.656;2022-07-29T10:50:05;27.10;99.90
21047;DHT22;10682;50.874;3.656;2022-07-29T10:55:40;27.10;99.90
21047;DHT22;10682;50.874;3.656;2022-07-29T10:58:20;27.00;99.90
21047;DHT22;10682;50.874;3.656;2022-07-29T11:00:51;27.10;99.90
21047;DHT22;10682;50.874;3.656;2022-07-29T11:03:45;27.10;99.90
21047;DHT22;10682;50.874;3.656;2022-07-29T11:06:19;27.20;99.90
21047;DHT22;10682;50.874;3.656;2022-07-29T11:09:19;27.10;99.90
21047;DHT22;10682;50.874;3.656;2022-07-29T11:12:03;27.20;99.90
21047;DHT22;10682;50.874;3.656;2022-07-29T11:14:56;27.30;99.90
21047;DHT22;10682;50.874;3.656;2022-07-29T11:17:26;27.40;99.90
21047;DHT22;10682;50.874;3.656;2022-07-29T11:20:32;27.60;99.90
21047;DHT22;10682;50.874;3.656;2022-07-29T11:23:34;27.80;99.90
21047;DHT22;10682;50.874;3.656;2022-07-29T11:31:44;28.50;99.90
21047;DHT22;10682;50.874;3.656;2022-07-29T11:34:32;28.70;99.90
21047;DHT22;10682;50.874;3.656;2022-07-29T11:45:21;29.00;99.90
21047;DHT22;10682;50.874;3.656;2022-07-29T11:48:20;29.20;99.90
21047;DHT22;10682;50.874;3.656;2022-07-29T11:50:57;29.30;99.90
21047;DHT22;10682;50.874;3.656;2022-07-29T11:53:28;29.10;99.90
21047;DHT22;10682;50.874;3.656;2022-07-29T11:56:00;28.90;99.90
21047;DHT22;10682;50.874;3.656;2022-07-29T11:58:28;29.20;99.90
21047;DHT22;10682;50.874;3.656;2022-07-29T12:00:56;29.20;99.90
21047;DHT22;10682;50.874;3.656;2022-07-29T12:03:36;29.10;99.90
21047;DHT22;10682;50.874;3.656;2022-07-29T12:06:12;29.20;99.90
21047;DHT22;10682;50.874;3.656;2022-07-29T12:08:44;29.70;99.90
21047;DHT22;10682;50.874;3.656;2022-07-29T12:11:31;30.20;99.90
21047;DHT22;10682;50.874;3.656;2022-07-29T12:13:59;30.50;99.90
21047;DHT22;10682;50.874;3.656;2022-07-29T12:16:36;30.30;99.90
21047;DHT22;10682;50.874;3.656;2022-07-29T12:19:06;30.70;99.90
21047;DHT22;10682;50.874;3.656;2022-07-29T12:21:53;30.70;99.90
21047;DHT22;10682;50.874;3.656;2022-07-29T12:24:43;30.60;99.90
21047;DHT22;10682;50.874;3.656;2022-07-29T12:27:17;30.60;99.90
21047;DHT22;10682;50.874;3.656;2022-07-29T12:29:59;30.90;99.90
21047;DHT22;10682;50.874;3.656;2022-07-29T12:32:37;30.50;99.90
21047;DHT22;10682;50.874;3.656;2022-07-29T12:35:16;29.50;99.90
21047;DHT22;10682;50.874;3.656;2022-07-29T12:37:48;28.70;99.90
21047;DHT22;10682;50.874;3.656;2022-07-29T12:40:20;28.50;99.90
21047;DHT22;10682;50.874;3.656;2022-07-29T12:43:12;28.70;99.90
21047;DHT22;10682;50.874;3.656;2022-07-29T12:45:50;29.00;99.90
21047;DHT22;10682;50.874;3.656;2022-07-29T12:48:32;29.00;99.90
21047;DHT22;10682;50.874;3.656;2022-07-29T12:51:03;29.20;99.90
21047;DHT22;10682;50.874;3.656;2022-07-29T12:53:33;29.10;99.90
21047;DHT22;10682;50.874;3.656;2022-07-29T12:56:04;28.50;99.90
21047;DHT22;10682;50.874;3.656;2022-07-29T12:58:52;28.60;99.90
21047;DHT22;10682;50.874;3.656;2022-07-29T13:01:21;29.20;99.90
21047;DHT22;10682;50.874;3.656;2022-07-29T13:03:50;29.70;99.90
21047;DHT22;10682;50.874;3.656;2022-07-29T13:06:43;30.00;99.90
21047;DHT22;10682;50.874;3.656;2022-07-29T13:09:16;30.10;99.90
21047;DHT22;10682;50.874;3.656;2022-07-29T13:11:47;30.20;99.90
21047;DHT22;10682;50.874;3.656;2022-07-29T13:14:35;30.60;99.90
21047;DHT22;10682;50.874;3.656;2022-07-29T13:17:20;31.00;99.90
21047;DHT22;10682;50.874;3.656;2022-07-29T13:19:52;31.00;99.90
21047;DHT22;10682;50.874;3.656;2022-07-29T13:22:22;30.90;99.90
21047;DHT22;10682;50.874;3.656;2022-07-29T13:24:57;30.20;99.90
21047;DHT22;10682;50.874;3.656;2022-07-29T13:27:27;29.70;99.90
21047;DHT22;10682;50.874;3.656;2022-07-29T13:29:57;29.20;99.90
21047;DHT22;10682;50.874;3.656;2022-07-29T13:32:28;28.70;99.90
21047;DHT22;10682;50.874;3.656;2022-07-29T13:34:58;28.80;99.90
21047;DHT22;10682;50.874;3.656;2022-07-29T13:37:31;29.30;99.90
21047;DHT22;10682;50.874;3.656;2022-07-29T13:40:02;29.70;99.90
21047;DHT22;10682;50.874;3.656;2022-07-29T13:42:31;30.20;99.90
21047;DHT22;10682;50.874;3.656;2022-07-29T13:44:59;30.40;99.90
21047;DHT22;10682;50.874;3.656;2022-07-29T13:47:27;29.90;99.90
21047;DHT22;10682;50.874;3.656;2022-07-29T13:50:05;29.70;99.90
21047;DHT22;10682;50.874;3.656;2022-07-29T13:52:34;29.40;99.90
21047;DHT22;10682;50.874;3.656;2022-07-29T13:55:02;29.20;99.90
21047;DHT22;10682;50.874;3.656;2022-07-29T13:57:30;28.90;99.90
21047;DHT22;10682;50.874;3.656;2022-07-29T13:59:57;28.90;99.90
21047;DHT22;10682;50.874;3.656;2022-07-29T14:02:24;28.40;99.90
21047;DHT22;10682;50.874;3.656;2022-07-29T14:04:53;28.20;99.90
21047;DHT22;10682;50.874;3.656;2022-07-29T14:07:22;28.20;99.90
21047;DHT22;10682;50.874;3.656;2022-07-29T14:09:50;28.20;99.90
21047;DHT22;10682;50.874;3.656;2022-07-29T14:12:17;28.00;99.90
21047;DHT22;10682;50.874;3.656;2022-07-29T14:14:44;27.90;99.90
21047;DHT22;10682;50.874;3.656;2022-07-29T14:17:13;27.60;99.90
21047;DHT22;10682;50.874;3.656;2022-07-29T14:19:40;27.80;99.90
21047;DHT22;10682;50.874;3.656;2022-07-29T14:22:09;28.00;99.90
21047;DHT22;10682;50.874;3.656;2022-07-29T14:24:38;28.40;99.90
21047;DHT22;10682;50.874;3.656;2022-07-29T14:27:06;28.90;99.90
21047;DHT22;10682;50.874;3.656;2022-07-29T14:29:35;29.60;99.90
21047;DHT22;10682;50.874;3.656;2022-07-29T14:32:06;30.10;99.90
21047;DHT22;10682;50.874;3.656;2022-07-29T14:34:36;30.30;99.90
21047;DHT22;10682;50.874;3.656;2022-07-29T14:37:04;30.40;99.90
21047;DHT22;10682;50.874;3.656;2022-07-29T14:39:33;30.40;99.90
21047;DHT22;10682;50.874;3.656;2022-07-29T14:42:16;30.40;99.90
21047;DHT22;10682;50.874;3.656;2022-07-29T14:44:43;30.50;99.90
21047;DHT22;10682;50.874;3.656;2022-07-29T14:47:11;30.50;99.90
21047;DHT22;10682;50.874;3.656;2022-07-29T14:49:38;30.00;99.90
21047;DHT22;10682;50.874;3.656;2022-07-29T14:52:05;29.80;99.90
21047;DHT22;10682;50.874;3.656;2022-07-29T14:54:32;29.40;99.90
21047;DHT22;10682;50.874;3.656;2022-07-29T14:57:00;28.80;99.90
21047;DHT22;10682;50.874;3.656;2022-07-29T14:59:27;28.50;99.90
21047;DHT22;10682;50.874;3.656;2022-07-29T15:01:54;28.30;99.90
21047;DHT22;10682;50.874;3.656;2022-07-29T15:04:22;28.10;99.90
21047;DHT22;10682;50.874;3.656;2022-07-29T15:06:49;28.00;99.90
21047;DHT22;10682;50.874;3.656;2022-07-29T15:09:16;28.30;99.90
21047;DHT22;10682;50.874;3.656;2022-07-29T15:11:44;28.40;99.90
21047;DHT22;10682;50.874;3.656;2022-07-29T15:14:11;28.40;99.90
21047;DHT22;10682;50.874;3.656;2022-07-29T15:16:41;28.10;99.90
21047;DHT22;10682;50.874;3.656;2022-07-29T15:19:09;28.10;99.90
21047;DHT22;10682;50.874;3.656;2022-07-29T15:21:37;28.10;99.90
21047;DHT22;10682;50.874;3.656;2022-07-29T15:24:13;28.10;99.90
21047;DHT22;10682;50.874;3.656;2022-07-29T15:26:43;28.20;99.90
21047;DHT22;10682;50.874;3.656;2022-07-29T15:29:10;28.30;99.90
21047;DHT22;10682;50.874;3.656;2022-07-29T15:31:37;28.40;99.90
21047;DHT22;10682;50.874;3.656;2022-07-29T15:34:04;28.20;99.90
21047;DHT22;10682;50.874;3.656;2022-07-29T15:36:32;28.10;99.90
21047;DHT22;10682;50.874;3.656;2022-07-29T15:39:20;28.20;99.90
21047;DHT22;10682;50.874;3.656;2022-07-29T15:41:48;28.30;99.90
21047;DHT22;10682;50.874;3.656;2022-07-29T15:44:16;28.40;99.90
21047;DHT22;10682;50.874;3.656;2022-07-29T15:46:43;28.40;99.90
21047;DHT22;10682;50.874;3.656;2022-07-29T15:49:39;28.60;99.90
21047;DHT22;10682;50.874;3.656;2022-07-29T15:52:15;28.60;99.90
21047;DHT22;10682;50.874;3.656;2022-07-29T15:54:53;28.40;99.90
21047;DHT22;10682;50.874;3.656;2022-07-29T15:57:21;28.30;99.90
21047;DHT22;10682;50.874;3.656;2022-07-29T15:59:49;28.40;99.90
21047;DHT22;10682;50.874;3.656;2022-07-29T16:02:16;28.40;99.90
21047;DHT22;10682;50.874;3.656;2022-07-29T16:04:43;28.40;99.90
21047;DHT22;10682;50.874;3.656;2022-07-29T16:07:10;28.40;99.90
21047;DHT22;10682;50.874;3.656;2022-07-29T16:09:42;28.50;99.90
21047;DHT22;10682;50.874;3.656;2022-07-29T16:12:29;28.40;99.90
21047;DHT22;10682;50.874;3.656;2022-07-29T16:14:56;28.30;99.90
21047;DHT22;10682;50.874;3.656;2022-07-29T16:17:23;28.10;99.90
21047;DHT22;10682;50.874;3.656;2022-07-29T16:19:50;27.90;99.90
21047;DHT22;10682;50.874;3.656;2022-07-29T16:22:17;27.60;99.90
21047;DHT22;10682;50.874;3.656;2022-07-29T16:24:44;27.40;99.90
21047;DHT22;10682;50.874;3.656;2022-07-29T16:27:11;27.30;99.90
21047;DHT22;10682;50.874;3.656;2022-07-29T16:29:38;27.20;99.90
21047;DHT22;10682;50.874;3.656;2022-07-29T16:32:05;27.10;99.90
21047;DHT22;10682;50.874;3.656;2022-07-29T16:34:32;27.00;99.90
21047;DHT22;10682;50.874;3.656;2022-07-29T16:36:59;27.00;99.90
21047;DHT22;10682;50.874;3.656;2022-07-29T16:39:27;27.00;99.90
21047;DHT22;10682;50.874;3.656;2022-07-29T16:41:54;26.90;99.90
21047;DHT22;10682;50.874;3.656;2022-07-29T16:44:26;26.90;99.90